createdAt,value
2023-03-12T00:01:13.376Z,98.14
2023-03-12T00:03:43.056Z,98.21
2023-03-12T00:06:11.439Z,98.26
2023-03-12T00:08:39.772Z,98.31
2023-03-12T00:11:08.961Z,98.20
2023-03-12T00:13:37.456Z,98.58
2023-03-12T00:16:09.571Z,98.85
2023-03-12T00:18:37.807Z,98.93
2023-03-12T00:21:08.075Z,99.37
2023-03-12T00:23:36.257Z,99.99
2023-03-12T00:26:06.040Z,99.77
2023-03-12T00:28:35.127Z,98.80
2023-03-12T00:31:03.725Z,99.62
2023-03-12T00:33:31.862Z,99.70
2023-03-12T00:36:01.695Z,99.87
2023-03-12T00:38:31.197Z,100.00
2023-03-12T00:40:59.263Z,99.73
2023-03-12T00:43:27.332Z,99.50
2023-03-12T00:45:55.375Z,99.75
2023-03-12T00:48:23.456Z,100.00
2023-03-12T00:50:51.514Z,100.00
2023-03-12T00:53:19.546Z,99.48
2023-03-12T00:55:49.020Z,99.57
2023-03-12T00:58:17.121Z,99.67
2023-03-12T01:00:45.269Z,99.81
2023-03-12T01:03:13.278Z,99.92
2023-03-12T01:05:41.923Z,99.61
2023-03-12T01:08:10.338Z,99.66
2023-03-12T01:10:42.068Z,100.00
2023-03-12T01:13:11.916Z,100.00
2023-03-12T01:15:40.080Z,100.00
2023-03-12T01:18:08.097Z,100.00
2023-03-12T01:20:36.263Z,100.00
2023-03-12T01:23:04.315Z,100.00
2023-03-12T01:25:34.176Z,100.00
2023-03-12T01:28:02.269Z,100.00
2023-03-12T01:30:31.968Z,100.00
2023-03-12T01:33:00.044Z,100.00
2023-03-12T01:35:28.249Z,100.00
2023-03-12T01:37:56.869Z,100.00
2023-03-12T01:40:28.977Z,100.00
2023-03-12T01:42:59.048Z,100.00
2023-03-12T01:45:46.029Z,100.00
2023-03-12T01:48:15.664Z,100.00
2023-03-12T01:50:43.779Z,100.00
2023-03-12T01:53:12.421Z,100.00
2023-03-12T01:55:40.605Z,100.00
2023-03-12T01:58:09.704Z,100.00
2023-03-12T02:00:37.837Z,100.00
2023-03-12T02:03:08.704Z,100.00
2023-03-12T02:05:43.814Z,100.00
2023-03-12T02:08:12.566Z,100.00
2023-03-12T02:10:40.776Z,100.00
2023-03-12T02:13:09.145Z,100.00
2023-03-12T02:15:37.545Z,100.00
2023-03-12T02:18:05.952Z,100.00
2023-03-12T02:20:37.817Z,100.00
2023-03-12T02:23:10.253Z,100.00
2023-03-12T02:25:41.031Z,100.00
2023-03-12T02:28:10.619Z,100.00
2023-03-12T02:30:41.262Z,100.00
2023-03-12T02:33:10.195Z,100.00
2023-03-12T02:35:38.910Z,100.00
2023-03-12T02:38:21.842Z,100.00
2023-03-12T02:40:52.370Z,100.00
2023-03-12T02:43:23.061Z,100.00
2023-03-12T02:45:51.193Z,100.00
2023-03-12T02:48:19.572Z,100.00
2023-03-12T02:50:47.633Z,100.00
2023-03-12T02:53:15.720Z,100.00
2023-03-12T02:55:43.740Z,100.00
2023-03-12T02:58:13.219Z,100.00
2023-03-12T03:00:41.425Z,100.00
2023-03-12T03:03:10.121Z,100.00
2023-03-12T03:05:38.395Z,100.00
2023-03-12T03:08:06.975Z,100.00
2023-03-12T03:10:35.187Z,100.00
2023-03-12T03:13:03.367Z,100.00
2023-03-12T03:15:32.937Z,100.00
2023-03-12T03:18:03.978Z,100.00
2023-03-12T03:20:32.371Z,100.00
2023-03-12T03:23:00.470Z,100.00
2023-03-12T03:25:29.111Z,100.00
2023-03-12T03:27:57.416Z,100.00
2023-03-12T03:30:25.649Z,100.00
2023-03-12T03:32:56.550Z,100.00
2023-03-12T03:35:24.936Z,100.00
2023-03-12T03:37:53.111Z,100.00
2023-03-12T03:40:21.320Z,100.00
2023-03-12T03:42:49.650Z,100.00
2023-03-12T03:45:17.920Z,100.00
2023-03-12T03:47:46.025Z,100.00
2023-03-12T03:50:15.736Z,100.00
2023-03-12T03:52:43.832Z,100.00
2023-03-12T03:55:12.096Z,100.00
2023-03-12T03:57:41.117Z,100.00
2023-03-12T04:00:13.226Z,100.00
2023-03-12T04:02:46.239Z,100.00
2023-03-12T04:05:19.661Z,100.00
2023-03-12T04:07:49.789Z,100.00
2023-03-12T04:10:20.991Z,100.00
2023-03-12T04:12:49.214Z,100.00
2023-03-12T04:15:19.255Z,100.00
2023-03-12T04:17:49.255Z,100.00
2023-03-12T04:20:19.286Z,100.00
2023-03-12T04:22:47.463Z,100.00
2023-03-12T04:25:15.669Z,100.00
2023-03-12T04:27:43.806Z,100.00
2023-03-12T04:30:12.782Z,100.00
2023-03-12T04:32:40.976Z,100.00
2023-03-12T04:35:09.467Z,100.00
2023-03-12T04:37:39.193Z,100.00
2023-03-12T04:40:09.934Z,100.00
2023-03-12T04:42:38.564Z,100.00
2023-03-12T04:45:08.246Z,100.00
2023-03-12T04:47:40.311Z,100.00
2023-03-12T04:50:09.505Z,100.00
2023-03-12T04:52:37.761Z,100.00
2023-03-12T04:55:09.816Z,100.00
2023-03-12T04:57:38.194Z,100.00
2023-03-12T05:00:13.103Z,100.00
2023-03-12T05:02:42.324Z,100.00
2023-03-12T05:05:12.410Z,100.00
2023-03-12T05:07:41.241Z,100.00
2023-03-12T05:10:11.426Z,100.00
2023-03-12T05:12:39.979Z,100.00
2023-03-12T05:15:08.720Z,100.00
2023-03-12T05:17:36.968Z,100.00
2023-03-12T05:20:07.105Z,100.00
2023-03-12T05:22:35.162Z,100.00
2023-03-12T05:25:03.900Z,100.00
2023-03-12T05:27:33.814Z,100.00
2023-03-12T05:30:01.911Z,100.00
2023-03-12T05:32:30.044Z,100.00
2023-03-12T05:34:58.136Z,100.00
2023-03-12T05:37:26.996Z,100.00
2023-03-12T05:39:55.249Z,100.00
2023-03-12T05:42:25.381Z,100.00
2023-03-12T05:44:55.120Z,100.00
2023-03-12T05:47:24.106Z,100.00
2023-03-12T05:49:52.185Z,100.00
2023-03-12T05:52:20.436Z,100.00
2023-03-12T05:54:49.254Z,100.00
2023-03-12T05:57:17.432Z,100.00
2023-03-12T05:59:45.739Z,100.00
2023-03-12T06:02:15.364Z,100.00
2023-03-12T06:04:44.692Z,100.00
2023-03-12T06:07:13.392Z,100.00
2023-03-12T06:09:42.069Z,100.00
2023-03-12T06:12:11.806Z,100.00
2023-03-12T06:14:39.819Z,100.00
2023-03-12T06:17:08.083Z,100.00
2023-03-12T06:19:37.528Z,100.00
2023-03-12T06:22:05.648Z,100.00
2023-03-12T06:24:33.873Z,100.00
2023-03-12T06:27:05.281Z,100.00
2023-03-12T06:29:33.328Z,100.00
2023-03-12T06:32:01.451Z,100.00
2023-03-12T06:34:29.552Z,100.00
2023-03-12T06:36:59.092Z,100.00
2023-03-12T06:39:27.354Z,100.00
2023-03-12T06:41:55.512Z,100.00
2023-03-12T06:44:23.537Z,100.00
2023-03-12T06:46:52.351Z,100.00
2023-03-12T06:49:20.379Z,100.00
2023-03-12T06:51:48.440Z,100.00
2023-03-12T06:54:18.060Z,100.00
2023-03-12T06:56:46.568Z,100.00
2023-03-12T06:59:14.686Z,100.00
2023-03-12T07:01:42.897Z,100.00
2023-03-12T07:04:10.888Z,100.00
2023-03-12T07:06:38.967Z,100.00
2023-03-12T07:09:07.222Z,100.00
2023-03-12T07:11:36.692Z,100.00
2023-03-12T07:14:04.730Z,100.00
2023-03-12T07:16:32.776Z,100.00
2023-03-12T07:19:00.934Z,100.00
2023-03-12T07:21:29.072Z,100.00
2023-03-12T07:23:57.130Z,100.00
2023-03-12T07:26:25.175Z,100.00
2023-03-12T07:28:54.548Z,100.00
2023-03-12T07:31:22.689Z,100.00
2023-03-12T07:33:50.922Z,100.00
2023-03-12T07:36:19.251Z,100.00
2023-03-12T07:38:47.339Z,100.00
2023-03-12T07:41:15.405Z,100.00
2023-03-12T07:43:43.559Z,100.00
2023-03-12T07:46:13.122Z,100.00
2023-03-12T07:48:44.129Z,100.00
2023-03-12T07:51:12.423Z,100.00
2023-03-12T07:53:40.641Z,100.00
2023-03-12T07:56:09.109Z,100.00
2023-03-12T07:58:38.628Z,100.00
2023-03-12T08:01:07.692Z,100.00
2023-03-12T08:03:37.354Z,100.00
2023-03-12T08:06:06.614Z,100.00
2023-03-12T08:08:36.272Z,100.00
2023-03-12T08:11:05.199Z,100.00
2023-03-12T08:13:33.279Z,100.00
2023-03-12T08:16:01.414Z,100.00
2023-03-12T08:18:30.610Z,100.00
2023-03-12T08:21:00.160Z,100.00
2023-03-12T08:23:28.335Z,100.00
2023-03-12T08:25:56.695Z,100.00
2023-03-12T08:28:25.462Z,100.00
2023-03-12T08:30:54.634Z,100.00
2023-03-12T08:33:22.987Z,100.00
2023-03-12T08:35:51.395Z,100.00
2023-03-12T08:38:21.312Z,100.00
2023-03-12T08:40:55.800Z,100.00
2023-03-12T08:43:24.211Z,100.00
2023-03-12T08:45:54.842Z,100.00
2023-03-12T08:48:22.940Z,100.00
2023-03-12T08:50:51.075Z,100.00
2023-03-12T08:53:20.483Z,100.00
2023-03-12T08:55:48.530Z,100.00
2023-03-12T08:58:16.620Z,100.00
2023-03-12T09:00:44.695Z,100.00
2023-03-12T09:03:15.194Z,100.00
2023-03-12T09:05:43.873Z,100.00
2023-03-12T09:08:12.784Z,100.00
2023-03-12T09:10:42.351Z,100.00
2023-03-12T09:13:10.464Z,100.00
2023-03-12T09:15:38.565Z,100.00
2023-03-12T09:18:06.750Z,100.00
2023-03-12T09:20:34.796Z,100.00
2023-03-12T09:23:02.795Z,100.00
2023-03-12T09:25:30.885Z,100.00
2023-03-12T09:28:02.308Z,100.00
2023-03-12T09:30:32.175Z,100.00
2023-03-12T09:33:00.384Z,100.00
2023-03-12T09:35:28.423Z,100.00
2023-03-12T09:37:56.685Z,100.00
2023-03-12T09:40:25.974Z,100.00
2023-03-12T09:42:57.031Z,100.00
2023-03-12T09:45:27.736Z,100.00
2023-03-12T09:47:57.113Z,100.00
2023-03-12T09:50:28.489Z,100.00
2023-03-12T09:53:00.504Z,100.00
2023-03-12T09:55:29.072Z,100.00
2023-03-12T09:57:59.272Z,100.00
2023-03-12T10:00:32.480Z,100.00
2023-03-12T10:03:09.033Z,100.00
2023-03-12T10:05:39.233Z,100.00
2023-03-12T10:08:24.672Z,100.00
2023-03-12T10:10:59.314Z,100.00
2023-03-12T10:13:34.712Z,100.00
2023-03-12T10:16:09.198Z,100.00
2023-03-12T10:18:46.978Z,100.00
2023-03-12T10:21:21.299Z,100.00
2023-03-12T10:23:54.941Z,100.00
2023-03-12T10:26:25.765Z,100.00
2023-03-12T10:28:57.262Z,100.00
2023-03-12T10:31:28.428Z,100.00
2023-03-12T10:33:57.450Z,100.00
2023-03-12T10:36:28.032Z,100.00
2023-03-12T10:38:56.100Z,100.00
2023-03-12T10:41:25.377Z,100.00
2023-03-12T10:43:54.025Z,100.00
2023-03-12T10:46:40.075Z,100.00
2023-03-12T10:49:32.150Z,100.00
2023-03-12T10:52:02.050Z,100.00
2023-03-12T10:54:31.793Z,100.00
2023-03-12T10:57:00.014Z,100.00
2023-03-12T10:59:29.455Z,100.00
2023-03-12T11:01:59.326Z,100.00
2023-03-12T11:04:30.188Z,100.00
2023-03-12T11:07:19.289Z,100.00
2023-03-12T11:09:47.487Z,100.00
2023-03-12T11:12:25.975Z,100.00
2023-03-12T11:14:54.003Z,100.00
2023-03-12T11:17:24.648Z,100.00
2023-03-12T11:19:53.323Z,100.00
2023-03-12T11:22:29.273Z,100.00
2023-03-12T11:24:58.450Z,100.00
2023-03-12T11:27:31.647Z,100.00
2023-03-12T11:30:00.519Z,100.00
2023-03-12T11:32:32.545Z,100.00
2023-03-12T11:35:00.870Z,100.00
2023-03-12T11:37:40.292Z,100.00
2023-03-12T11:40:18.559Z,100.00
2023-03-12T11:42:56.301Z,100.00
2023-03-12T11:45:28.897Z,100.00
2023-03-12T11:48:06.310Z,100.00
2023-03-12T11:50:43.677Z,100.00
2023-03-12T11:53:23.700Z,100.00
2023-03-12T11:55:57.145Z,96.64
2023-03-12T11:58:31.541Z,93.60
2023-03-12T12:01:04.546Z,88.36
2023-03-12T12:03:48.668Z,91.02
2023-03-12T12:06:19.766Z,89.40
2023-03-12T12:09:09.010Z,87.01
2023-03-12T12:11:45.285Z,83.82
2023-03-12T12:14:17.451Z,81.43
2023-03-12T12:16:51.400Z,81.61
2023-03-12T12:19:30.698Z,80.52
2023-03-12T12:22:04.946Z,80.77
2023-03-12T12:24:39.198Z,80.40
2023-03-12T12:27:12.805Z,79.81
2023-03-12T12:29:51.526Z,78.44
2023-03-12T12:32:23.679Z,79.09
2023-03-12T12:35:04.909Z,78.80
2023-03-12T12:37:39.256Z,78.69
2023-03-12T12:40:13.918Z,77.99
2023-03-12T12:42:48.358Z,77.45
2023-03-12T12:45:17.944Z,77.75
2023-03-12T12:47:48.403Z,77.43
2023-03-12T12:50:20.506Z,77.56
2023-03-12T12:52:52.238Z,77.75
2023-03-12T12:55:23.946Z,77.14
2023-03-12T12:57:53.603Z,78.00
2023-03-12T13:00:26.011Z,77.42
2023-03-12T13:02:56.418Z,78.17
2023-03-12T13:05:27.818Z,78.20
2023-03-12T13:07:55.907Z,78.77
2023-03-12T13:10:48.540Z,77.99
2023-03-12T13:13:27.224Z,77.11
2023-03-12T13:16:17.905Z,77.13
2023-03-12T13:18:56.946Z,78.07
2023-03-12T13:21:30.668Z,79.05
2023-03-12T13:24:06.821Z,79.18
2023-03-12T13:26:44.184Z,78.23
2023-03-12T13:29:22.208Z,77.50
2023-03-12T13:31:50.760Z,79.93
2023-03-12T13:34:46.157Z,79.40
2023-03-12T13:37:48.949Z,77.57
2023-03-12T13:40:36.563Z,78.12
2023-03-12T13:43:11.679Z,77.23
2023-03-12T13:45:55.500Z,76.74
2023-03-12T13:48:24.115Z,74.64
2023-03-12T13:50:57.202Z,77.01
2023-03-12T13:53:28.799Z,76.81
2023-03-12T13:56:04.559Z,78.46
2023-03-12T13:58:33.062Z,77.59
2023-03-12T14:01:02.560Z,77.83
2023-03-12T14:03:31.919Z,76.89
2023-03-12T14:06:01.705Z,76.86
2023-03-12T14:08:42.500Z,75.47
2023-03-12T14:11:40.706Z,74.55
2023-03-12T14:14:26.441Z,76.12
2023-03-12T14:16:57.107Z,74.79
2023-03-12T14:19:26.633Z,74.40
2023-03-12T14:21:55.754Z,76.18
2023-03-12T14:24:26.663Z,75.36
2023-03-12T14:26:55.286Z,75.22
2023-03-12T14:29:26.627Z,75.59
2023-03-12T14:31:56.905Z,76.35
2023-03-12T14:34:25.780Z,77.27
2023-03-12T14:36:59.395Z,76.33
2023-03-12T14:39:32.172Z,76.53
2023-03-12T14:42:01.265Z,76.76
2023-03-12T14:44:31.080Z,76.45
2023-03-12T14:47:00.510Z,74.56
2023-03-12T14:49:28.932Z,74.65
2023-03-12T14:51:57.823Z,75.24
2023-03-12T14:54:26.973Z,74.99
2023-03-12T14:56:56.531Z,77.59
2023-03-12T14:59:26.604Z,78.48
2023-03-12T15:01:59.288Z,77.65
2023-03-12T15:04:27.805Z,77.76
2023-03-12T15:06:57.218Z,78.58
2023-03-12T15:09:27.082Z,78.59
2023-03-12T15:11:57.794Z,76.39
2023-03-12T15:14:27.288Z,78.77
2023-03-12T15:16:55.525Z,77.70
2023-03-12T15:19:27.488Z,77.13
2023-03-12T15:21:55.837Z,79.30
2023-03-12T15:24:24.293Z,77.69
2023-03-12T15:26:52.402Z,77.51
2023-03-12T15:29:26.868Z,80.45
2023-03-12T15:31:56.254Z,80.50
2023-03-12T15:34:32.207Z,80.98
2023-03-12T15:37:01.535Z,83.13
2023-03-12T15:39:31.762Z,82.79
2023-03-12T15:42:02.610Z,82.38
2023-03-12T15:44:37.888Z,83.15
2023-03-12T15:47:08.135Z,83.06
2023-03-12T15:49:37.551Z,84.38
2023-03-12T15:52:07.446Z,83.03
2023-03-12T15:54:40.630Z,88.81
2023-03-12T15:57:22.121Z,89.28
2023-03-12T16:00:17.808Z,88.45
2023-03-12T16:02:51.063Z,90.56
2023-03-12T16:05:19.537Z,91.80
2023-03-12T16:07:47.816Z,89.77
2023-03-12T16:10:16.886Z,89.92
2023-03-12T16:12:46.011Z,87.13
2023-03-12T16:15:17.050Z,88.34
2023-03-12T16:17:45.491Z,88.99
2023-03-12T16:20:14.854Z,87.87
2023-03-12T16:22:42.986Z,89.87
2023-03-12T16:25:13.210Z,87.40
2023-03-12T16:27:46.494Z,88.05
2023-03-12T16:30:17.824Z,88.02
2023-03-12T16:32:46.140Z,89.12
2023-03-12T16:35:15.984Z,87.08
2023-03-12T16:37:44.279Z,85.38
2023-03-12T16:40:16.368Z,86.98
2023-03-12T16:42:50.858Z,88.48
2023-03-12T16:45:20.453Z,88.64
2023-03-12T16:47:49.500Z,89.41
2023-03-12T16:50:18.223Z,87.09
2023-03-12T16:52:48.158Z,88.89
2023-03-12T16:55:16.382Z,87.92
2023-03-12T16:57:46.668Z,88.69
2023-03-12T17:00:16.181Z,85.82
2023-03-12T17:02:45.716Z,85.87
2023-03-12T17:05:14.648Z,85.81
2023-03-12T17:07:42.729Z,84.86
2023-03-12T17:10:11.651Z,86.30
2023-03-12T17:12:40.815Z,86.49
2023-03-12T17:15:12.983Z,85.47
2023-03-12T17:17:41.020Z,86.53
2023-03-12T17:20:13.663Z,84.73
2023-03-12T17:22:42.157Z,87.24
2023-03-12T17:25:15.828Z,87.01
2023-03-12T17:27:43.860Z,86.45
2023-03-12T17:30:12.712Z,82.94
2023-03-12T17:32:40.859Z,84.47
2023-03-12T17:35:10.826Z,84.48
2023-03-12T17:37:38.807Z,83.67
2023-03-12T17:40:08.982Z,84.27
2023-03-12T17:42:37.643Z,85.46
2023-03-12T17:45:06.684Z,84.10
2023-03-12T17:47:35.159Z,85.04
2023-03-12T17:50:03.312Z,85.33
2023-03-12T17:52:34.178Z,83.40
2023-03-12T17:55:02.279Z,84.15
2023-03-12T17:57:31.103Z,85.11
2023-03-12T17:59:59.186Z,83.69
2023-03-12T18:02:27.261Z,81.99
2023-03-12T18:04:55.378Z,82.36
2023-03-12T18:07:23.431Z,81.84
2023-03-12T18:09:53.009Z,80.17
2023-03-12T18:12:21.096Z,80.39
2023-03-12T18:14:49.090Z,81.13
2023-03-12T18:17:17.144Z,80.37
2023-03-12T18:19:45.378Z,79.56
2023-03-12T18:22:14.696Z,79.22
2023-03-12T18:24:43.066Z,78.70
2023-03-12T18:27:12.517Z,77.23
2023-03-12T18:29:41.270Z,77.27
2023-03-12T18:32:09.659Z,78.39
2023-03-12T18:34:41.437Z,78.26
2023-03-12T18:37:09.516Z,76.38
2023-03-12T18:39:37.569Z,77.26
2023-03-12T18:42:05.709Z,75.08
2023-03-12T18:44:35.197Z,75.70
2023-03-12T18:47:03.478Z,74.25
2023-03-12T18:49:31.543Z,72.70
2023-03-12T18:51:59.607Z,71.68
2023-03-12T18:54:27.672Z,72.63
2023-03-12T18:56:55.757Z,74.46
2023-03-12T18:59:23.839Z,72.75
2023-03-12T19:01:53.329Z,72.36
2023-03-12T19:04:21.482Z,70.64
2023-03-12T19:06:51.877Z,72.88
2023-03-12T19:09:20.167Z,71.50
2023-03-12T19:11:48.587Z,71.83
2023-03-12T19:14:16.766Z,71.92
2023-03-12T19:16:44.783Z,72.92
2023-03-12T19:19:14.245Z,72.52
2023-03-12T19:21:42.330Z,69.95
2023-03-12T19:24:10.509Z,70.21
2023-03-12T19:26:38.612Z,69.47
2023-03-12T19:29:06.767Z,70.91
2023-03-12T19:31:34.900Z,72.23
2023-03-12T19:34:02.996Z,69.92
2023-03-12T19:36:32.373Z,68.83
2023-03-12T19:39:02.377Z,69.03
2023-03-12T19:41:32.415Z,68.61
2023-03-12T19:44:00.448Z,70.56
2023-03-12T19:46:28.569Z,69.08
2023-03-12T19:48:56.667Z,68.62
2023-03-12T19:51:24.748Z,70.36
2023-03-12T19:53:54.211Z,70.77
2023-03-12T19:56:22.967Z,70.14
2023-03-12T19:58:51.163Z,70.85
2023-03-12T20:01:21.354Z,71.09
2023-03-12T20:03:49.520Z,70.56
2023-03-12T20:06:17.557Z,68.70
2023-03-12T20:08:45.815Z,70.42
2023-03-12T20:11:15.220Z,69.68
2023-03-12T20:13:43.276Z,70.21
2023-03-12T20:16:13.321Z,69.58
2023-03-12T20:18:41.993Z,68.12
2023-03-12T20:21:10.142Z,68.58
2023-03-12T20:23:38.677Z,68.72
2023-03-12T20:26:06.802Z,69.15
2023-03-12T20:28:36.275Z,70.65
2023-03-12T20:31:08.699Z,68.79
2023-03-12T20:33:36.813Z,70.15
2023-03-12T20:36:08.333Z,69.91
2023-03-12T20:38:36.732Z,68.91
2023-03-12T20:41:05.579Z,69.33
2023-03-12T20:43:33.711Z,68.86
2023-03-12T20:46:03.210Z,69.20
2023-03-12T20:48:31.450Z,70.18
2023-03-12T20:51:00.108Z,67.99
2023-03-12T20:53:28.164Z,68.00
2023-03-12T20:55:56.253Z,67.14
2023-03-12T20:58:24.394Z,68.18
2023-03-12T21:00:52.592Z,66.58
2023-03-12T21:03:22.790Z,67.95
2023-03-12T21:05:54.859Z,68.20
2023-03-12T21:08:22.945Z,68.31
2023-03-12T21:10:51.005Z,67.08
2023-03-12T21:13:19.880Z,66.85
2023-03-12T21:15:48.271Z,67.71
2023-03-12T21:18:16.997Z,67.45
2023-03-12T21:20:46.660Z,67.99
2023-03-12T21:23:14.800Z,69.72
2023-03-12T21:25:43.330Z,68.84
2023-03-12T21:28:12.061Z,68.03
2023-03-12T21:30:40.496Z,67.26
2023-03-12T21:33:08.897Z,66.22
2023-03-12T21:35:37.034Z,66.33
2023-03-12T21:38:06.658Z,65.42
2023-03-12T21:40:36.881Z,65.92
2023-03-12T21:43:05.365Z,65.60
2023-03-12T21:45:33.370Z,64.57
2023-03-12T21:48:01.831Z,65.67
2023-03-12T21:50:29.938Z,64.80
2023-03-12T21:52:58.049Z,65.02
2023-03-12T21:55:27.563Z,63.58
2023-03-12T21:57:55.736Z,64.71
2023-03-12T22:00:24.699Z,65.09
2023-03-12T22:02:53.921Z,63.75
2023-03-12T22:05:22.069Z,63.78
2023-03-12T22:07:50.093Z,63.57
2023-03-12T22:10:18.325Z,65.47
2023-03-12T22:12:47.893Z,63.95
2023-03-12T22:15:15.944Z,62.46
2023-03-12T22:17:44.009Z,62.65
2023-03-12T22:20:12.473Z,63.54
2023-03-12T22:22:40.604Z,64.82
2023-03-12T22:25:09.024Z,63.92
2023-03-12T22:27:37.186Z,65.75
2023-03-12T22:30:07.414Z,63.25
2023-03-12T22:32:35.561Z,63.54
2023-03-12T22:35:03.648Z,64.07
2023-03-12T22:37:31.755Z,63.09
2023-03-12T22:40:01.692Z,64.73
2023-03-12T22:42:29.883Z,64.21
2023-03-12T22:44:57.932Z,64.60
2023-03-12T22:47:27.453Z,63.87
2023-03-12T22:49:58.435Z,64.62
2023-03-12T22:52:26.487Z,64.97
2023-03-12T22:54:54.580Z,64.97
2023-03-12T22:57:22.626Z,64.31
2023-03-12T22:59:50.689Z,64.59
2023-03-12T23:02:18.745Z,64.32
2023-03-12T23:04:48.257Z,64.86
2023-03-12T23:07:16.699Z,65.27
2023-03-12T23:09:46.147Z,64.81
2023-03-12T23:12:14.283Z,66.24
2023-03-12T23:14:42.408Z,66.11
2023-03-12T23:17:10.660Z,66.02
2023-03-12T23:19:38.708Z,66.30
2023-03-12T23:22:08.529Z,65.74
2023-03-12T23:24:36.768Z,64.99
2023-03-12T23:27:05.249Z,65.97
2023-03-12T23:29:34.078Z,65.40
2023-03-12T23:32:02.346Z,65.32
2023-03-12T23:34:30.529Z,64.84
2023-03-12T23:36:58.864Z,64.19
2023-03-12T23:39:30.169Z,63.96
2023-03-12T23:41:58.378Z,65.21
2023-03-12T23:44:26.496Z,64.73
2023-03-12T23:46:54.548Z,64.69
2023-03-12T23:49:22.750Z,65.12
2023-03-12T23:51:50.906Z,64.63
2023-03-12T23:54:18.991Z,63.12
2023-03-12T23:56:48.459Z,63.42
2023-03-12T23:59:16.544Z,63.86
